createdAt,value
2023-05-23T00:02:00.368Z,95634.91
2023-05-23T00:04:29.487Z,95616.69
2023-05-23T00:06:56.560Z,95615.47
2023-05-23T00:09:23.451Z,95619.69
2023-05-23T00:11:50.071Z,95609.56
2023-05-23T00:14:16.975Z,95629.13
2023-05-23T00:16:45.198Z,95623.91
2023-05-23T00:19:15.123Z,95625.13
2023-05-23T00:21:49.625Z,95628.91
2023-05-23T00:24:18.700Z,95625.13
2023-05-23T00:26:45.897Z,95626.81
2023-05-23T00:29:18.520Z,95619.94
2023-05-23T00:31:46.790Z,95621.38
2023-05-23T00:34:18.232Z,95621.06
2023-05-23T00:36:47.585Z,95619.16
2023-05-23T00:39:19.513Z,95628.91
2023-05-23T00:41:51.354Z,95621.81
2023-05-23T00:44:20.338Z,95623.50
2023-05-23T00:46:51.490Z,95614.41
2023-05-23T00:49:20.262Z,95622.66
2023-05-23T00:51:49.478Z,95627.09
2023-05-23T00:54:19.177Z,95619.84
2023-05-23T00:56:46.893Z,95626.56
2023-05-23T00:59:13.761Z,95627.31
2023-05-23T01:01:41.247Z,95619.00
2023-05-23T01:04:07.951Z,95626.44
2023-05-23T01:06:34.517Z,95623.63
2023-05-23T01:09:02.939Z,95629.19
2023-05-23T01:11:47.190Z,95624.63
2023-05-23T01:14:22.082Z,95629.63
2023-05-23T01:16:55.923Z,95624.28
2023-05-23T01:19:23.241Z,95628.50
2023-05-23T01:21:54.997Z,95638.06
2023-05-23T01:24:30.256Z,95633.19
2023-05-23T01:27:14.928Z,95632.72
2023-05-23T01:29:46.944Z,95636.28
2023-05-23T01:32:16.246Z,95636.09
2023-05-23T01:34:43.772Z,95638.28
2023-05-23T01:37:11.327Z,95635.19
2023-05-23T01:39:38.634Z,95640.06
2023-05-23T01:42:06.002Z,95646.28
2023-05-23T01:44:35.226Z,95639.84
2023-05-23T01:47:04.188Z,95640.94
2023-05-23T01:49:31.841Z,95649.56
2023-05-23T01:52:00.620Z,95645.75
2023-05-23T01:54:29.646Z,95659.31
2023-05-23T01:57:00.640Z,95662.19
2023-05-23T01:59:27.269Z,95664.88
2023-05-23T02:01:55.306Z,95662.81
2023-05-23T02:04:22.144Z,95662.81
2023-05-23T02:06:48.662Z,95664.38
2023-05-23T02:09:15.666Z,95670.72
2023-05-23T02:11:42.195Z,95667.13
2023-05-23T02:14:09.814Z,95654.78
2023-05-23T02:16:36.730Z,95668.06
2023-05-23T02:19:03.634Z,95666.50
2023-05-23T02:21:34.267Z,95664.28
2023-05-23T02:24:03.171Z,95666.81
2023-05-23T02:26:30.109Z,95671.22
2023-05-23T02:28:56.620Z,95671.84
2023-05-23T02:31:24.533Z,95669.09
2023-05-23T02:33:51.080Z,95679.16
2023-05-23T02:36:17.720Z,95669.91
2023-05-23T02:38:44.674Z,95672.72
2023-05-23T02:41:11.336Z,95671.69
2023-05-23T02:43:38.228Z,95671.03
2023-05-23T02:46:05.567Z,95678.56
2023-05-23T02:48:32.888Z,95676.72
2023-05-23T02:50:59.599Z,95669.69
2023-05-23T02:53:26.289Z,95679.75
2023-05-23T02:55:53.348Z,95672.88
2023-05-23T02:58:20.752Z,95675.38
2023-05-23T03:00:47.470Z,95682.31
2023-05-23T03:03:14.101Z,95682.34
2023-05-23T03:05:40.844Z,95685.44
2023-05-23T03:08:07.713Z,95683.91
2023-05-23T03:10:34.408Z,95681.88
2023-05-23T03:13:01.069Z,95679.41
2023-05-23T03:15:30.450Z,95675.97
2023-05-23T03:17:57.578Z,95683.44
2023-05-23T03:20:24.274Z,95683.91
2023-05-23T03:22:51.013Z,95684.09
2023-05-23T03:25:17.748Z,95688.16
2023-05-23T03:27:44.385Z,95683.91
2023-05-23T03:30:12.408Z,95685.19
2023-05-23T03:32:39.513Z,95691.16
2023-05-23T03:35:06.631Z,95691.41
2023-05-23T03:37:33.262Z,95687.41
2023-05-23T03:40:00.219Z,95694.63
2023-05-23T03:42:28.363Z,95693.38
2023-05-23T03:44:55.012Z,95681.97
2023-05-23T03:47:24.278Z,95690.06
2023-05-23T03:49:51.218Z,95697.47
2023-05-23T03:52:18.160Z,95696.53
2023-05-23T03:54:45.553Z,95700.75
2023-05-23T03:57:12.946Z,95702.19
2023-05-23T03:59:39.856Z,95705.16
2023-05-23T04:02:09.903Z,95699.84
2023-05-23T04:04:36.778Z,95697.81
2023-05-23T04:07:05.775Z,95698.72
2023-05-23T04:09:32.757Z,95702.50
2023-05-23T04:12:00.399Z,95704.22
2023-05-23T04:14:27.998Z,95695.16
2023-05-23T04:16:56.411Z,95695.72
2023-05-23T04:19:23.185Z,95700.59
2023-05-23T04:21:51.575Z,95709.78
2023-05-23T04:24:18.399Z,95717.28
2023-05-23T04:26:45.037Z,95693.72
2023-05-23T04:29:12.659Z,95710.88
2023-05-23T04:31:39.384Z,95714.00
2023-05-23T04:34:07.920Z,95704.19
2023-05-23T04:36:38.876Z,95724.19
2023-05-23T04:39:06.114Z,95720.09
2023-05-23T04:41:38.556Z,95720.22
2023-05-23T04:44:14.922Z,95710.28
2023-05-23T04:47:20.232Z,95732.59
2023-05-23T04:50:04.412Z,95733.88
2023-05-23T04:52:33.938Z,95734.63
2023-05-23T04:55:01.302Z,95741.81
2023-05-23T04:57:28.951Z,95724.78
2023-05-23T04:59:57.105Z,95728.81
2023-05-23T05:02:23.880Z,95738.19
2023-05-23T05:04:51.254Z,95739.56
2023-05-23T05:07:18.080Z,95732.94
2023-05-23T05:09:45.300Z,95741.94
2023-05-23T05:12:12.423Z,95738.94
2023-05-23T05:14:40.006Z,95732.66
2023-05-23T05:17:06.836Z,95729.34
2023-05-23T05:19:42.153Z,95738.44
2023-05-23T05:22:08.934Z,95738.97
2023-05-23T05:24:40.316Z,95730.53
2023-05-23T05:27:07.234Z,95732.09
2023-05-23T05:29:34.449Z,95732.81
2023-05-23T05:32:03.454Z,95737.94
2023-05-23T05:34:30.047Z,95712.88
2023-05-23T05:36:57.063Z,95733.38
2023-05-23T05:39:26.361Z,95734.28
2023-05-23T05:41:53.504Z,95757.16
2023-05-23T05:44:20.142Z,95754.72
2023-05-23T05:46:46.817Z,95756.41
2023-05-23T05:49:13.724Z,95757.16
2023-05-23T05:51:41.489Z,95761.28
2023-05-23T05:54:08.057Z,95758.53
2023-05-23T05:56:34.647Z,95757.16
2023-05-23T05:59:01.248Z,95754.06
2023-05-23T06:01:27.802Z,95759.66
2023-05-23T06:03:54.496Z,95754.47
2023-05-23T06:06:22.216Z,95766.09
2023-05-23T06:08:48.939Z,95759.97
2023-05-23T06:11:16.855Z,95758.38
2023-05-23T06:13:43.412Z,95767.91
2023-05-23T06:16:10.058Z,95756.31
2023-05-23T06:18:36.858Z,95765.88
2023-05-23T06:21:03.485Z,95760.56
2023-05-23T06:23:30.249Z,95763.31
2023-05-23T06:25:58.873Z,95763.88
2023-05-23T06:28:25.729Z,95751.34
2023-05-23T06:30:52.297Z,95758.00
2023-05-23T06:33:18.833Z,95760.94
2023-05-23T06:35:45.344Z,95746.44
2023-05-23T06:38:11.936Z,95779.00
2023-05-23T06:40:40.075Z,95766.97
2023-05-23T06:43:06.885Z,95772.34
2023-05-23T06:45:47.198Z,95779.81
2023-05-23T06:48:14.030Z,95779.94
2023-05-23T06:50:41.636Z,95789.41
2023-05-23T06:53:10.078Z,95771.81
2023-05-23T06:55:36.645Z,95779.16
2023-05-23T06:58:04.791Z,95777.28
2023-05-23T07:00:32.576Z,95769.97
2023-05-23T07:03:09.550Z,95777.06
2023-05-23T07:05:39.298Z,95782.00
2023-05-23T07:08:10.793Z,95770.63
2023-05-23T07:10:39.269Z,95774.56
2023-05-23T07:13:17.340Z,95779.66
2023-05-23T07:15:44.122Z,95783.25
2023-05-23T07:18:13.852Z,95783.25
2023-05-23T07:20:40.639Z,95795.69
2023-05-23T07:23:16.752Z,95798.59
2023-05-23T07:25:53.793Z,95791.00
2023-05-23T07:28:28.873Z,95804.03
2023-05-23T07:30:57.512Z,95793.81
2023-05-23T07:33:24.937Z,95791.13
2023-05-23T07:35:54.013Z,95784.75
2023-05-23T07:38:20.992Z,95795.09
2023-05-23T07:40:55.603Z,95791.88
2023-05-23T07:43:29.656Z,95800.78
2023-05-23T07:45:56.170Z,95797.53
2023-05-23T07:48:22.739Z,95804.44
2023-05-23T07:50:49.266Z,95793.53
2023-05-23T07:53:16.656Z,95796.41
2023-05-23T07:55:43.209Z,95791.75
2023-05-23T07:58:10.250Z,95804.66
2023-05-23T08:00:36.984Z,95797.84
2023-05-23T08:03:11.933Z,95804.31
2023-05-23T08:05:48.799Z,95791.75
2023-05-23T08:08:15.605Z,95802.09
2023-05-23T08:10:42.535Z,95810.34
2023-05-23T08:13:16.409Z,95811.44
2023-05-23T08:16:00.095Z,95799.22
2023-05-23T08:18:31.011Z,95813.78
2023-05-23T08:20:57.711Z,95803.66
2023-05-23T08:23:24.311Z,95791.75
2023-05-23T08:25:51.724Z,95802.34
2023-05-23T08:28:18.458Z,95804.00
2023-05-23T08:30:51.925Z,95810.47
2023-05-23T08:33:18.499Z,95798.41
2023-05-23T08:35:47.358Z,95797.09
2023-05-23T08:38:15.733Z,95804.13
2023-05-23T08:41:00.594Z,95807.38
2023-05-23T08:43:29.391Z,95828.16
2023-05-23T08:45:56.057Z,95814.88
2023-05-23T08:48:26.207Z,95818.66
2023-05-23T08:50:53.215Z,95841.44
2023-05-23T08:53:27.340Z,95833.53
2023-05-23T08:56:02.776Z,95833.19
2023-05-23T08:58:40.738Z,95835.66
2023-05-23T09:01:11.377Z,95836.44
2023-05-23T09:03:38.538Z,95829.66
2023-05-23T09:06:25.667Z,95840.66
2023-05-23T09:08:53.306Z,95827.66
2023-05-23T09:11:22.142Z,95839.88
2023-05-23T09:13:49.872Z,95839.53
2023-05-23T09:16:19.071Z,95834.88
2023-05-23T09:18:50.194Z,95832.63
2023-05-23T09:21:19.674Z,95846.34
2023-05-23T09:23:55.010Z,95840.44
2023-05-23T09:26:22.413Z,95837.00
2023-05-23T09:28:48.969Z,95843.44
2023-05-23T09:31:16.281Z,95826.06
2023-05-23T09:33:50.327Z,95850.34
2023-05-23T09:36:19.008Z,95848.47
2023-05-23T09:38:47.564Z,95847.91
2023-05-23T09:41:14.462Z,95841.00
2023-05-23T09:43:50.377Z,95851.69
2023-05-23T09:46:16.949Z,95837.22
2023-05-23T09:48:52.083Z,95843.66
2023-05-23T09:51:21.485Z,95848.41
2023-05-23T09:53:48.263Z,95852.25
2023-05-23T09:56:17.249Z,95848.50
2023-05-23T09:58:48.258Z,95855.63
2023-05-23T10:01:15.705Z,95839.38
2023-05-23T10:03:50.452Z,95849.75
2023-05-23T10:06:37.866Z,95851.56
2023-05-23T10:09:05.883Z,95852.44
2023-05-23T10:11:35.548Z,95845.31
2023-05-23T10:14:07.380Z,95846.91
2023-05-23T10:16:56.893Z,95851.03
2023-05-23T10:19:48.754Z,95851.22
2023-05-23T10:22:16.928Z,95849.47
2023-05-23T10:24:45.490Z,95839.66
2023-05-23T10:27:12.441Z,95838.34
2023-05-23T10:29:39.588Z,95841.00
2023-05-23T10:32:07.478Z,95843.69
2023-05-23T10:35:06.180Z,95832.75
2023-05-23T10:37:59.735Z,95827.41
2023-05-23T10:40:43.397Z,95822.13
2023-05-23T10:43:19.029Z,95822.66
2023-05-23T10:45:47.044Z,95824.00
2023-05-23T10:48:22.715Z,95822.13
2023-05-23T10:51:08.760Z,95825.44
2023-05-23T10:53:38.454Z,95821.94
2023-05-23T10:56:10.236Z,95818.34
2023-05-23T10:58:39.375Z,95820.38
2023-05-23T11:01:08.635Z,95818.69
2023-05-23T11:03:57.472Z,95816.72
2023-05-23T11:06:42.866Z,95826.50
2023-05-23T11:09:18.693Z,95828.00
2023-05-23T11:11:54.388Z,95821.25
2023-05-23T11:14:35.213Z,95816.16
2023-05-23T11:17:16.686Z,95818.19
2023-05-23T11:19:58.855Z,95803.94
2023-05-23T11:22:30.565Z,95804.00
2023-05-23T11:24:58.541Z,95804.63
2023-05-23T11:27:36.299Z,95804.81
2023-05-23T11:30:09.970Z,95798.66
2023-05-23T11:32:37.162Z,95785.91
2023-05-23T11:35:08.393Z,95797.91
2023-05-23T11:37:35.412Z,95799.56
2023-05-23T11:40:35.937Z,95801.81
2023-05-23T11:43:05.187Z,95803.31
2023-05-23T11:45:33.920Z,95787.53
2023-05-23T11:48:06.608Z,95794.53
2023-05-23T11:50:34.253Z,95795.69
2023-05-23T11:53:00.982Z,95789.09
2023-05-23T11:55:27.693Z,95794.31
2023-05-23T11:57:56.479Z,95794.19
2023-05-23T12:00:23.099Z,95793.19
2023-05-23T12:02:49.746Z,95790.75
2023-05-23T12:05:16.608Z,95785.06
2023-05-23T12:07:47.041Z,95779.66
2023-05-23T12:10:17.905Z,95783.78
2023-05-23T12:12:45.038Z,95785.56
2023-05-23T12:15:13.424Z,95789.13
2023-05-23T12:17:46.695Z,95772.25
2023-05-23T12:20:13.888Z,95785.31
2023-05-23T12:22:42.044Z,95794.09
2023-05-23T12:25:10.675Z,95789.47
2023-05-23T12:27:40.242Z,95796.28
2023-05-23T12:30:09.752Z,95786.56
2023-05-23T12:32:41.099Z,95793.47
2023-05-23T12:35:09.604Z,95793.56
2023-05-23T12:37:40.315Z,95799.00
2023-05-23T12:40:14.482Z,95801.41
2023-05-23T12:42:51.409Z,95798.00
2023-05-23T12:45:18.347Z,95803.19
2023-05-23T12:47:44.943Z,95800.19
2023-05-23T12:50:12.244Z,95795.03
2023-05-23T12:52:40.098Z,95794.31
2023-05-23T12:55:08.035Z,95795.50
2023-05-23T12:57:35.564Z,95795.16
2023-05-23T13:00:02.634Z,95798.16
2023-05-23T13:02:29.255Z,95796.69
2023-05-23T13:04:56.168Z,95788.75
2023-05-23T13:07:23.024Z,95794.09
2023-05-23T13:09:49.784Z,95795.94
2023-05-23T13:12:16.754Z,95799.97
2023-05-23T13:14:43.288Z,95795.19
2023-05-23T13:17:09.941Z,95799.06
2023-05-23T13:19:37.077Z,95793.78
2023-05-23T13:22:04.796Z,95789.88
2023-05-23T13:24:31.293Z,95785.56
2023-05-23T13:26:57.845Z,95784.81
2023-05-23T13:29:24.502Z,95782.13
2023-05-23T13:31:51.172Z,95776.28
2023-05-23T13:34:17.778Z,95780.06
2023-05-23T13:36:44.294Z,95775.69
2023-05-23T13:39:11.166Z,95778.50
2023-05-23T13:41:37.757Z,95769.81
2023-05-23T13:44:04.287Z,95776.16
2023-05-23T13:46:30.845Z,95770.00
2023-05-23T13:48:57.454Z,95769.56
2023-05-23T13:51:24.050Z,95774.44
2023-05-23T13:53:50.750Z,95767.59
2023-05-23T13:56:17.379Z,95766.13
2023-05-23T13:58:46.560Z,95767.59
2023-05-23T14:01:13.375Z,95774.72
2023-05-23T14:03:39.900Z,95774.19
2023-05-23T14:06:06.592Z,95774.88
2023-05-23T14:08:33.239Z,95770.50
2023-05-23T14:10:59.714Z,95782.09
2023-05-23T14:13:26.675Z,95766.44
2023-05-23T14:15:54.120Z,95776.56
2023-05-23T14:18:20.738Z,95777.56
2023-05-23T14:20:47.311Z,95767.56
2023-05-23T14:23:13.914Z,95772.03
2023-05-23T14:25:40.679Z,95780.53
2023-05-23T14:28:07.335Z,95780.38
2023-05-23T14:30:35.303Z,95780.28
2023-05-23T14:33:01.987Z,95789.38
2023-05-23T14:35:29.608Z,95782.34
2023-05-23T14:37:56.338Z,95774.91
2023-05-23T14:40:23.036Z,95780.00
2023-05-23T14:42:49.567Z,95773.88
2023-05-23T14:45:18.663Z,95775.47
2023-05-23T14:47:45.813Z,95786.63
2023-05-23T14:50:12.385Z,95791.00
2023-05-23T14:52:38.925Z,95794.63
2023-05-23T14:55:06.025Z,95800.41
2023-05-23T14:57:32.636Z,95804.31
2023-05-23T14:59:59.133Z,95801.34
2023-05-23T15:02:25.783Z,95801.34
2023-05-23T15:04:52.432Z,95804.72
2023-05-23T15:07:19.090Z,95804.28
2023-05-23T15:09:47.660Z,95809.91
2023-05-23T15:12:15.327Z,95809.91
2023-05-23T15:14:43.536Z,95806.38
2023-05-23T15:17:12.779Z,95810.88
2023-05-23T15:19:42.795Z,95807.69
2023-05-23T15:22:15.504Z,95816.06
2023-05-23T15:24:49.077Z,95811.13
2023-05-23T15:27:20.660Z,95815.72
2023-05-23T15:29:48.305Z,95817.78
2023-05-23T15:32:14.889Z,95822.47
2023-05-23T15:34:41.539Z,95814.00
2023-05-23T15:37:08.130Z,95820.72
2023-05-23T15:39:35.183Z,95820.56
2023-05-23T15:42:02.026Z,95815.81
2023-05-23T15:44:28.630Z,95821.34
2023-05-23T15:46:55.908Z,95827.06
2023-05-23T15:49:26.625Z,95831.34
2023-05-23T15:51:54.978Z,95824.47
2023-05-23T15:54:21.666Z,95827.72
2023-05-23T15:56:48.316Z,95828.91
2023-05-23T15:59:14.874Z,95832.28
2023-05-23T16:01:41.935Z,95835.97
2023-05-23T16:04:08.738Z,95832.72
2023-05-23T16:06:36.612Z,95831.66
2023-05-23T16:09:03.564Z,95840.03
2023-05-23T16:11:30.175Z,95840.72
2023-05-23T16:13:56.719Z,95842.06
2023-05-23T16:16:23.295Z,95853.56
2023-05-23T16:18:50.162Z,95843.19
2023-05-23T16:21:20.575Z,95854.06
2023-05-23T16:23:50.013Z,95843.94
2023-05-23T16:26:18.323Z,95848.06
2023-05-23T16:28:45.441Z,95849.09
2023-05-23T16:31:16.724Z,95843.75
2023-05-23T16:33:44.562Z,95846.66
2023-05-23T16:36:11.116Z,95848.03
2023-05-23T16:38:37.622Z,95848.69
2023-05-23T16:41:04.363Z,95847.13
2023-05-23T16:43:31.102Z,95852.03
2023-05-23T16:45:57.672Z,95855.97
2023-05-23T16:48:24.336Z,95831.59
2023-05-23T16:50:51.085Z,95852.53
2023-05-23T16:53:17.654Z,95853.31
2023-05-23T16:55:45.483Z,95855.44
2023-05-23T16:58:15.027Z,95857.88
2023-05-23T17:00:41.564Z,95855.22
2023-05-23T17:03:08.400Z,95855.69
2023-05-23T17:05:35.173Z,95859.03
2023-05-23T17:08:02.394Z,95862.03
2023-05-23T17:10:28.944Z,95860.59
2023-05-23T17:12:55.636Z,95861.91
2023-05-23T17:15:22.241Z,95859.03
2023-05-23T17:17:49.174Z,95852.16
2023-05-23T17:20:16.266Z,95863.47
2023-05-23T17:22:42.806Z,95875.53
2023-05-23T17:25:09.534Z,95871.19
2023-05-23T17:27:36.064Z,95873.06
2023-05-23T17:30:05.106Z,95868.63
2023-05-23T17:32:31.896Z,95869.28
2023-05-23T17:34:58.820Z,95867.19
2023-05-23T17:37:26.420Z,95871.28
2023-05-23T17:39:57.955Z,95875.97
2023-05-23T17:42:24.927Z,95877.19
2023-05-23T17:44:51.479Z,95873.72
2023-05-23T17:47:18.471Z,95873.81
2023-05-23T17:49:45.197Z,95877.28
2023-05-23T17:52:14.907Z,95874.25
2023-05-23T17:54:41.923Z,95890.41
2023-05-23T17:57:08.435Z,95879.50
2023-05-23T17:59:35.183Z,95878.88
2023-05-23T18:02:01.715Z,95891.00
2023-05-23T18:04:28.845Z,95888.56
2023-05-23T18:06:55.366Z,95889.00
2023-05-23T18:09:21.937Z,95892.13
2023-05-23T18:11:48.470Z,95889.00
2023-05-23T18:14:15.073Z,95889.63
2023-05-23T18:16:42.034Z,95893.19
2023-05-23T18:19:09.073Z,95897.88
2023-05-23T18:21:35.720Z,95892.63
2023-05-23T18:24:03.979Z,95907.84
2023-05-23T18:26:31.035Z,95903.28
2023-05-23T18:28:57.618Z,95903.16
2023-05-23T18:31:24.225Z,95902.72
2023-05-23T18:33:50.752Z,95919.41
2023-05-23T18:36:17.652Z,95912.50
2023-05-23T18:38:44.559Z,95917.38
2023-05-23T18:41:14.606Z,95924.72
2023-05-23T18:43:41.654Z,95916.28
2023-05-23T18:46:08.488Z,95919.47
2023-05-23T18:48:35.860Z,95923.56
2023-05-23T18:51:03.131Z,95918.88
2023-05-23T18:53:29.918Z,95919.06
2023-05-23T18:55:56.483Z,95917.06
2023-05-23T18:58:23.256Z,95935.06
2023-05-23T19:00:50.007Z,95941.22
2023-05-23T19:03:17.170Z,95949.72
2023-05-23T19:05:43.970Z,95946.63
2023-05-23T19:08:10.619Z,95947.25
2023-05-23T19:10:37.165Z,95948.34
2023-05-23T19:13:03.940Z,95954.78
2023-05-23T19:15:30.970Z,95959.66
2023-05-23T19:17:57.538Z,95963.66
2023-05-23T19:20:24.216Z,95975.09
2023-05-23T19:22:52.269Z,95973.53
2023-05-23T19:25:20.580Z,95982.63
2023-05-23T19:27:47.140Z,95981.88
2023-05-23T19:30:14.004Z,95986.13
2023-05-23T19:32:40.738Z,95987.28
2023-05-23T19:35:08.331Z,95996.25
2023-05-23T19:37:35.019Z,95987.50
2023-05-23T19:40:01.834Z,95995.00
2023-05-23T19:42:28.554Z,95985.31
2023-05-23T19:44:55.092Z,95992.06
2023-05-23T19:47:21.816Z,95978.03
2023-05-23T19:49:48.467Z,95996.50
2023-05-23T19:52:15.030Z,96000.25
2023-05-23T19:54:41.897Z,95997.47
2023-05-23T19:57:08.752Z,96003.41
2023-05-23T19:59:35.364Z,96005.97
2023-05-23T20:02:01.902Z,96009.41
2023-05-23T20:04:28.491Z,96013.94
2023-05-23T20:06:56.066Z,96002.38
2023-05-23T20:09:23.214Z,96011.97
2023-05-23T20:11:49.820Z,96008.84
2023-05-23T20:14:16.464Z,96011.81
2023-05-23T20:16:43.165Z,96014.94
2023-05-23T20:19:10.008Z,96010.09
2023-05-23T20:21:36.735Z,96014.78
2023-05-23T20:24:03.396Z,96006.34
2023-05-23T20:26:30.027Z,96023.41
2023-05-23T20:28:56.583Z,96020.13
2023-05-23T20:31:23.217Z,96034.25
2023-05-23T20:33:49.899Z,96027.81
2023-05-23T20:36:19.586Z,96029.53
2023-05-23T20:38:47.615Z,96030.50
2023-05-23T20:41:14.313Z,96022.34
2023-05-23T20:43:41.081Z,96028.44
2023-05-23T20:46:09.874Z,96030.34
2023-05-23T20:48:36.817Z,96016.88
2023-05-23T20:51:05.607Z,96042.09
2023-05-23T20:53:32.368Z,96034.88
2023-05-23T20:55:59.249Z,96035.97
2023-05-23T20:58:25.878Z,96043.47
2023-05-23T21:00:52.910Z,96033.94
2023-05-23T21:03:19.789Z,96038.28
2023-05-23T21:05:46.358Z,96037.97
2023-05-23T21:08:13.035Z,96050.16
2023-05-23T21:10:39.811Z,96047.03
2023-05-23T21:13:06.834Z,96042.34
2023-05-23T21:15:34.007Z,96044.50
2023-05-23T21:18:00.702Z,96046.72
2023-05-23T21:20:28.920Z,96050.28
2023-05-23T21:22:55.661Z,96048.59
2023-05-23T21:25:22.211Z,96019.28
2023-05-23T21:27:48.804Z,96050.75
2023-05-23T21:30:15.547Z,96054.22
2023-05-23T21:32:43.584Z,96058.41
2023-05-23T21:35:10.699Z,96023.97
2023-05-23T21:37:37.366Z,96060.91
2023-05-23T21:40:04.410Z,96050.91
2023-05-23T21:42:31.054Z,96062.91
2023-05-23T21:44:57.785Z,96070.44
2023-05-23T21:47:25.131Z,96066.94
2023-05-23T21:49:51.815Z,96065.53
2023-05-23T21:52:18.648Z,96062.53
2023-05-23T21:54:47.020Z,96074.91
2023-05-23T21:57:13.652Z,96074.50
2023-05-23T21:59:40.296Z,96074.69
2023-05-23T22:02:07.049Z,96073.44
2023-05-23T22:04:33.764Z,96086.25
2023-05-23T22:07:00.395Z,96085.44
2023-05-23T22:09:26.946Z,96079.00
2023-05-23T22:11:53.697Z,96088.16
2023-05-23T22:14:20.422Z,96084.72
2023-05-23T22:16:47.226Z,96086.59
2023-05-23T22:19:18.005Z,96101.72
2023-05-23T22:21:44.619Z,96093.91
2023-05-23T22:24:11.132Z,96104.25
2023-05-23T22:26:39.136Z,96104.25
2023-05-23T22:29:06.938Z,96106.00
2023-05-23T22:31:33.544Z,96106.63
2023-05-23T22:34:00.164Z,96102.53
2023-05-23T22:36:26.859Z,96098.44
2023-05-23T22:38:53.416Z,96104.53
2023-05-23T22:41:19.960Z,96104.53
2023-05-23T22:43:46.948Z,96100.44
2023-05-23T22:46:13.621Z,96091.81
2023-05-23T22:48:40.168Z,96095.38
2023-05-23T22:51:07.940Z,96096.13
2023-05-23T22:53:34.615Z,96092.22
2023-05-23T22:56:01.301Z,96096.22
2023-05-23T22:58:27.881Z,96094.63
2023-05-23T23:00:54.419Z,96090.53
2023-05-23T23:03:21.295Z,96091.63
2023-05-23T23:05:47.921Z,96081.59
2023-05-23T23:08:16.059Z,96085.91
2023-05-23T23:10:43.908Z,96086.84
2023-05-23T23:13:13.531Z,96087.56
2023-05-23T23:15:40.617Z,96085.66
2023-05-23T23:18:07.670Z,96082.66
2023-05-23T23:20:34.503Z,96084.84
2023-05-23T23:23:01.093Z,96084.66
2023-05-23T23:25:27.692Z,96082.13
2023-05-23T23:27:54.205Z,96069.38
2023-05-23T23:30:21.073Z,96078.22
2023-05-23T23:32:48.023Z,96085.69
2023-05-23T23:35:14.613Z,96090.72
2023-05-23T23:37:41.315Z,96093.47
2023-05-23T23:40:08.770Z,96086.09
2023-05-23T23:42:35.645Z,96090.81
2023-05-23T23:45:02.241Z,96090.94
2023-05-23T23:47:28.866Z,96093.19
2023-05-23T23:49:55.698Z,96090.84
2023-05-23T23:52:22.275Z,96088.69
2023-05-23T23:54:48.777Z,96087.13
2023-05-23T23:57:15.372Z,96084.31
2023-05-23T23:59:42.066Z,96079.50
